Evansville, Indiana
Current Conditions -  °F | °C
As of 4:54 AM on Monday 20 Oct 2014 (Local Time) from KEVV Reporting Station
Light Rain Light Rain  
Wind Chill: 51°   Ceiling: 11000
Heat Index: 51°   Visibility: 9mi
Dew Point: 47°   Wind: 5mph
Humidity: 86%   Direction: 220°SW
Pressure: 30.03"   Gusts: NA
Location:  37.98°N, 87.56°W
Report Text: KEVV 200954Z AUTO 22004KT 9SM -RA FEW075 OVC110 11/08 A3003 RMK AO2 RAB47 SLP167 P0000 T01060083
Loading
Personal Weather Stations






























Interactive Weather Map
Tropical Storm Tracking
New forecast layout! Learn more

10-Day Weather Forecast

Advertisements
Track Severe Weather on mobile